Terminal Aerodrome Forecast
Issued by NWS

Home | Current Version | Previous Version | Text Only | Print | Product List | Glossary On
Versions: 1 2 3 4 5 6 7 8 9 10 11 12 13 14 15 16 17 18 19 20 21 22 23 24 25 26 27 28 29 30 31 32 33 34 35
000
FTPQ31 PGUM 051122
TAFGUM
TAF

TAF
PGSN 051122Z 0512/0612 16025G40KT 6SM SHRA SCT012 BKN020 OVC110
      TEMPO 0512/0516 2SM +SHRA SCT007 OVC012
     FM051700 15018G30KT P6SM VCSH SCT012 BKN030 OVC120
     FM060100 14015G25KT P6SM VCSH SCT015 SCT030 BKN120
     FM060900 12013KT P6SM VCSH SCT015 SCT040 SCT120=

USA.gov is the U.S. government's official web portal to all federal, state and local government web resources and services.